createdAt,value
2023-05-16T00:00:55.526Z,1.73
2023-05-16T00:03:22.205Z,1.25
2023-05-16T00:05:48.675Z,1.55
2023-05-16T00:08:15.234Z,1.23
2023-05-16T00:10:41.721Z,1.50
2023-05-16T00:13:08.214Z,1.33
2023-05-16T00:15:34.869Z,1.30
2023-05-16T00:18:01.705Z,1.65
2023-05-16T00:20:28.863Z,1.38
2023-05-16T00:22:55.962Z,1.83
2023-05-16T00:25:23.182Z,1.20
2023-05-16T00:27:49.791Z,0.82
2023-05-16T00:30:16.338Z,1.95
2023-05-16T00:32:43.214Z,1.27
2023-05-16T00:35:11.473Z,1.52
2023-05-16T00:37:38.713Z,1.23
2023-05-16T00:40:05.880Z,1.60
2023-05-16T00:42:32.457Z,1.10
2023-05-16T00:44:59.026Z,1.13
2023-05-16T00:47:25.716Z,1.40
2023-05-16T00:49:52.564Z,1.00
2023-05-16T00:52:19.054Z,1.30
2023-05-16T00:54:45.665Z,1.35
2023-05-16T00:57:16.269Z,1.45
2023-05-16T00:59:44.586Z,1.45
2023-05-16T01:02:11.223Z,1.42
2023-05-16T01:04:37.742Z,1.45
2023-05-16T01:07:04.400Z,1.23
2023-05-16T01:09:31.640Z,1.45
2023-05-16T01:12:11.114Z,1.30
2023-05-16T01:14:56.415Z,1.15
2023-05-16T01:17:59.679Z,0.93
2023-05-16T01:20:26.093Z,1.10
2023-05-16T01:23:05.451Z,0.90
2023-05-16T01:26:05.695Z,1.42
2023-05-16T01:28:32.435Z,1.65
2023-05-16T01:30:58.974Z,1.42
2023-05-16T01:33:25.576Z,1.50
2023-05-16T01:36:04.033Z,1.40
2023-05-16T01:38:44.637Z,1.63
2023-05-16T01:41:29.569Z,1.33
2023-05-16T01:44:05.034Z,1.65
2023-05-16T01:46:37.348Z,2.80
2023-05-16T01:49:25.188Z,1.17
2023-05-16T01:51:56.014Z,1.35
2023-05-16T01:54:26.440Z,1.20
2023-05-16T01:56:55.337Z,1.52
2023-05-16T01:59:24.120Z,1.30
2023-05-16T02:01:53.954Z,1.20
2023-05-16T02:04:20.660Z,1.35
2023-05-16T02:06:47.290Z,1.20
2023-05-16T02:09:13.771Z,1.00
2023-05-16T02:11:40.186Z,1.70
2023-05-16T02:14:06.610Z,1.40
2023-05-16T02:16:34.067Z,1.42
2023-05-16T02:19:00.881Z,1.23
2023-05-16T02:21:27.345Z,1.30
2023-05-16T02:23:53.843Z,1.50
2023-05-16T02:26:20.721Z,1.83
2023-05-16T02:28:49.437Z,1.55
2023-05-16T02:31:29.352Z,1.15
2023-05-16T02:33:57.282Z,1.38
2023-05-16T02:36:24.130Z,1.15
2023-05-16T02:38:50.712Z,2.10
2023-05-16T02:41:17.161Z,1.25
2023-05-16T02:43:46.824Z,1.52
2023-05-16T02:46:25.822Z,0.95
2023-05-16T02:48:52.503Z,1.20
2023-05-16T02:51:22.026Z,1.05
2023-05-16T02:53:49.046Z,1.02
2023-05-16T02:56:15.530Z,1.20
2023-05-16T02:58:42.536Z,1.65
2023-05-16T03:01:09.846Z,1.58
2023-05-16T03:03:37.538Z,1.02
2023-05-16T03:06:04.142Z,1.50
2023-05-16T03:08:30.848Z,1.23
2023-05-16T03:10:57.223Z,1.77
2023-05-16T03:13:23.972Z,1.33
2023-05-16T03:15:50.774Z,1.33
2023-05-16T03:18:17.442Z,1.25
2023-05-16T03:20:43.923Z,1.50
2023-05-16T03:23:10.571Z,1.30
2023-05-16T03:25:37.650Z,1.33
2023-05-16T03:28:06.950Z,1.02
2023-05-16T03:30:34.323Z,1.08
2023-05-16T03:33:01.090Z,1.30
2023-05-16T03:35:34.729Z,1.30
2023-05-16T03:38:01.484Z,1.17
2023-05-16T03:40:27.990Z,1.85
2023-05-16T03:42:54.397Z,1.50
2023-05-16T03:45:20.971Z,0.90
2023-05-16T03:47:49.338Z,1.73
2023-05-16T03:50:16.495Z,1.33
2023-05-16T03:52:43.384Z,1.42
2023-05-16T03:55:10.442Z,1.40
2023-05-16T03:57:40.888Z,1.38
2023-05-16T04:00:08.643Z,1.30
2023-05-16T04:02:35.363Z,1.30
2023-05-16T04:05:01.894Z,1.55
2023-05-16T04:07:28.358Z,1.05
2023-05-16T04:09:55.776Z,1.17
2023-05-16T04:12:23.085Z,1.38
2023-05-16T04:14:49.518Z,1.30
2023-05-16T04:17:16.168Z,1.25
2023-05-16T04:19:42.724Z,1.25
2023-05-16T04:22:09.367Z,1.10
2023-05-16T04:24:35.797Z,1.80
2023-05-16T04:27:02.338Z,1.55
2023-05-16T04:29:29.166Z,1.17
2023-05-16T04:31:55.794Z,1.40
2023-05-16T04:34:23.230Z,1.20
2023-05-16T04:36:49.697Z,1.83
2023-05-16T04:39:16.240Z,1.20
2023-05-16T04:41:42.637Z,1.17
2023-05-16T04:44:11.092Z,1.13
2023-05-16T04:46:37.672Z,1.42
2023-05-16T04:49:04.618Z,0.93
2023-05-16T04:51:32.603Z,1.08
2023-05-16T04:53:59.145Z,1.98
2023-05-16T04:56:26.785Z,1.20
2023-05-16T04:58:54.590Z,1.27
2023-05-16T05:01:21.430Z,1.05
2023-05-16T05:03:48.507Z,1.50
2023-05-16T05:06:15.065Z,1.48
2023-05-16T05:08:41.732Z,1.20
2023-05-16T05:11:08.225Z,1.00
2023-05-16T05:13:34.621Z,1.17
2023-05-16T05:16:02.045Z,1.23
2023-05-16T05:18:28.767Z,1.20
2023-05-16T05:20:55.287Z,1.10
2023-05-16T05:23:21.929Z,1.52
2023-05-16T05:25:48.523Z,1.25
2023-05-16T05:28:15.040Z,1.50
2023-05-16T05:30:43.217Z,1.45
2023-05-16T05:33:11.763Z,1.20
2023-05-16T05:35:38.373Z,1.20
2023-05-16T05:38:04.822Z,1.63
2023-05-16T05:40:31.265Z,1.30
2023-05-16T05:42:57.715Z,1.52
2023-05-16T05:45:24.077Z,1.30
2023-05-16T05:47:51.085Z,1.10
2023-05-16T05:50:17.724Z,1.15
2023-05-16T05:52:44.354Z,1.58
2023-05-16T05:55:11.130Z,1.27
2023-05-16T05:57:37.768Z,1.10
2023-05-16T06:00:05.323Z,1.35
2023-05-16T06:02:31.938Z,1.10
2023-05-16T06:04:58.460Z,1.23
2023-05-16T06:07:24.929Z,1.13
2023-05-16T06:09:52.091Z,0.90
2023-05-16T06:12:18.472Z,0.98
2023-05-16T06:14:46.054Z,1.10
2023-05-16T06:17:12.606Z,0.73
2023-05-16T06:19:39.274Z,0.85
2023-05-16T06:22:05.839Z,1.27
2023-05-16T06:24:32.311Z,0.73
2023-05-16T06:26:58.714Z,0.77
2023-05-16T06:29:25.434Z,0.80
2023-05-16T06:31:52.155Z,1.02
2023-05-16T06:34:18.981Z,0.95
2023-05-16T06:36:45.508Z,0.95
2023-05-16T06:39:12.037Z,0.65
2023-05-16T06:41:38.515Z,1.10
2023-05-16T06:44:05.159Z,1.23
2023-05-16T06:46:32.720Z,1.15
2023-05-16T06:48:59.473Z,1.33
2023-05-16T06:51:25.957Z,0.80
2023-05-16T06:53:52.429Z,0.80
2023-05-16T06:56:18.956Z,1.30
2023-05-16T06:58:45.900Z,0.90
2023-05-16T07:01:12.478Z,0.80
2023-05-16T07:03:39.332Z,0.60
2023-05-16T07:06:06.002Z,1.10
2023-05-16T07:08:33.075Z,0.93
2023-05-16T07:10:59.509Z,1.35
2023-05-16T07:13:26.076Z,0.80
2023-05-16T07:15:52.690Z,0.95
2023-05-16T07:18:19.299Z,0.95
2023-05-16T07:20:46.100Z,0.70
2023-05-16T07:23:12.547Z,0.90
2023-05-16T07:25:39.111Z,0.70
2023-05-16T07:28:05.750Z,0.90
2023-05-16T07:30:32.392Z,0.63
2023-05-16T07:33:01.822Z,0.50
2023-05-16T07:35:28.550Z,0.68
2023-05-16T07:37:55.460Z,0.90
2023-05-16T07:40:25.848Z,1.02
2023-05-16T07:42:52.365Z,0.90
2023-05-16T07:45:19.204Z,0.90
2023-05-16T07:47:46.353Z,0.82
2023-05-16T07:50:12.958Z,0.80
2023-05-16T07:52:39.467Z,0.77
2023-05-16T07:55:06.456Z,0.90
2023-05-16T07:57:33.047Z,0.57
2023-05-16T07:59:59.650Z,1.08
2023-05-16T08:02:30.567Z,0.90
2023-05-16T08:05:00.383Z,0.90
2023-05-16T08:07:26.996Z,0.82
2023-05-16T08:09:53.692Z,0.80
2023-05-16T08:12:20.333Z,0.95
2023-05-16T08:14:47.119Z,1.20
2023-05-16T08:17:16.439Z,0.82
2023-05-16T08:19:43.177Z,0.88
2023-05-16T08:22:09.962Z,0.65
2023-05-16T08:24:36.512Z,0.88
2023-05-16T08:27:02.995Z,0.57
2023-05-16T08:29:30.229Z,0.80
2023-05-16T08:31:56.804Z,0.80
2023-05-16T08:34:23.463Z,0.60
2023-05-16T08:36:50.076Z,0.70
2023-05-16T08:39:16.755Z,0.70
2023-05-16T08:41:43.666Z,1.00
2023-05-16T08:44:12.457Z,0.70
2023-05-16T08:46:41.524Z,0.70
2023-05-16T08:49:09.247Z,0.90
2023-05-16T08:51:37.694Z,0.90
2023-05-16T08:54:09.181Z,0.70
2023-05-16T08:56:37.038Z,0.50
2023-05-16T08:59:04.616Z,0.95
2023-05-16T09:01:34.444Z,0.47
2023-05-16T09:04:01.467Z,1.10
2023-05-16T09:06:28.171Z,0.60
2023-05-16T09:08:55.338Z,1.23
2023-05-16T09:11:22.036Z,0.88
2023-05-16T09:13:51.273Z,0.68
2023-05-16T09:16:19.584Z,0.75
2023-05-16T09:19:01.884Z,0.52
2023-05-16T09:21:31.854Z,0.50
2023-05-16T09:24:08.640Z,0.55
2023-05-16T09:26:37.299Z,0.57
2023-05-16T09:29:12.312Z,0.43
2023-05-16T09:31:39.085Z,0.77
2023-05-16T09:34:11.124Z,0.60
2023-05-16T09:36:37.700Z,0.70
2023-05-16T09:39:08.666Z,0.85
2023-05-16T09:41:36.434Z,0.80
2023-05-16T09:44:06.922Z,0.80
2023-05-16T09:46:38.116Z,0.80
2023-05-16T09:49:05.004Z,0.88
2023-05-16T09:51:32.143Z,0.90
2023-05-16T09:53:59.023Z,0.50
2023-05-16T09:56:25.434Z,0.60
2023-05-16T09:58:52.548Z,0.70
2023-05-16T10:01:19.581Z,0.82
2023-05-16T10:03:46.241Z,0.73
2023-05-16T10:06:16.583Z,0.52
2023-05-16T10:08:43.873Z,0.73
2023-05-16T10:11:11.754Z,0.57
2023-05-16T10:13:42.554Z,0.68
2023-05-16T10:18:41.341Z,0.50
2023-05-16T10:21:15.665Z,0.65
2023-05-16T10:23:43.929Z,0.68
2023-05-16T10:26:14.850Z,0.70
2023-05-16T10:28:42.016Z,1.00
2023-05-16T10:31:11.069Z,0.55
2023-05-16T10:33:38.849Z,0.63
2023-05-16T10:36:06.009Z,0.70
2023-05-16T10:38:34.560Z,0.80
2023-05-16T10:41:01.915Z,0.80
2023-05-16T10:43:31.006Z,0.60
2023-05-16T10:45:59.884Z,0.57
2023-05-16T10:48:31.662Z,0.50
2023-05-16T10:50:58.265Z,0.52
2023-05-16T10:53:33.006Z,0.63
2023-05-16T10:55:59.407Z,0.60
2023-05-16T10:58:35.709Z,0.70
2023-05-16T11:01:27.128Z,0.95
2023-05-16T11:03:57.320Z,0.73
2023-05-16T11:06:25.572Z,0.98
2023-05-16T11:09:05.850Z,0.80
2023-05-16T11:11:53.610Z,1.00
2023-05-16T11:14:29.018Z,0.50
2023-05-16T11:17:15.404Z,0.60
2023-05-16T11:20:00.910Z,0.63
2023-05-16T11:22:32.822Z,0.40
2023-05-16T11:24:59.290Z,0.70
2023-05-16T11:27:31.177Z,0.82
2023-05-16T11:30:06.609Z,0.50
2023-05-16T11:32:41.435Z,0.63
2023-05-16T11:35:14.321Z,0.50
2023-05-16T11:37:42.864Z,0.60
2023-05-16T11:40:12.218Z,0.55
2023-05-16T11:42:50.430Z,0.68
2023-05-16T11:45:19.253Z,0.68
2023-05-16T11:47:50.613Z,0.65
2023-05-16T11:50:26.821Z,0.70
2023-05-16T11:52:56.722Z,0.68
2023-05-16T11:55:41.180Z,0.70
2023-05-16T11:58:09.478Z,0.50
2023-05-16T12:00:36.332Z,0.73
2023-05-16T12:03:05.916Z,0.95
2023-05-16T12:05:34.577Z,0.60
2023-05-16T12:08:02.826Z,0.63
2023-05-16T12:10:31.838Z,0.50
2023-05-16T12:12:58.671Z,0.70
2023-05-16T12:15:25.698Z,0.70
2023-05-16T12:17:52.801Z,0.40
2023-05-16T12:20:19.739Z,0.88
2023-05-16T12:22:46.680Z,0.50
2023-05-16T12:25:23.127Z,0.80
2023-05-16T12:27:49.976Z,0.70
2023-05-16T12:30:21.580Z,0.52
2023-05-16T12:32:53.393Z,0.60
2023-05-16T12:35:20.060Z,0.80
2023-05-16T12:37:46.674Z,0.90
2023-05-16T12:40:13.438Z,0.73
2023-05-16T12:42:39.941Z,0.65
2023-05-16T12:45:16.047Z,0.70
2023-05-16T12:47:43.000Z,0.90
2023-05-16T12:50:14.496Z,0.95
2023-05-16T12:52:52.579Z,1.00
2023-05-16T12:55:21.037Z,0.63
2023-05-16T12:57:48.787Z,0.85
2023-05-16T13:00:21.065Z,1.00
2023-05-16T13:02:48.770Z,0.80
2023-05-16T13:05:15.903Z,0.70
2023-05-16T13:07:42.674Z,0.90
2023-05-16T13:10:13.338Z,0.70
2023-05-16T13:15:09.678Z,0.82
2023-05-16T13:17:37.356Z,1.00
2023-05-16T13:20:08.991Z,0.55
2023-05-16T13:22:45.118Z,0.82
2023-05-16T13:25:12.137Z,0.70
2023-05-16T13:27:38.709Z,0.70
2023-05-16T13:30:05.785Z,0.80
2023-05-16T13:32:32.400Z,0.80
2023-05-16T13:34:59.098Z,0.65
2023-05-16T13:37:25.788Z,1.05
2023-05-16T13:39:54.801Z,0.60
2023-05-16T13:42:21.662Z,0.82
2023-05-16T13:44:48.390Z,0.60
2023-05-16T13:47:14.911Z,0.80
2023-05-16T13:49:41.471Z,0.73
2023-05-16T13:52:08.596Z,0.68
2023-05-16T13:54:35.246Z,0.75
2023-05-16T13:57:03.430Z,0.80
2023-05-16T13:59:52.588Z,0.70
2023-05-16T14:02:16.862Z,0.77
2023-05-16T14:04:43.432Z,0.63
2023-05-16T14:07:10.003Z,0.80
2023-05-16T14:09:39.518Z,0.80
2023-05-16T14:12:07.483Z,0.50
2023-05-16T14:14:37.442Z,0.70
2023-05-16T14:17:04.317Z,0.52
2023-05-16T14:19:31.622Z,0.85
2023-05-16T14:21:58.407Z,0.47
2023-05-16T14:24:25.147Z,0.63
2023-05-16T14:26:58.159Z,0.60
2023-05-16T14:29:25.675Z,1.00
2023-05-16T14:31:52.809Z,0.70
2023-05-16T14:34:19.505Z,0.80
2023-05-16T14:36:49.050Z,0.50
2023-05-16T14:39:15.702Z,0.70
2023-05-16T14:41:42.195Z,0.70
2023-05-16T14:44:08.759Z,0.80
2023-05-16T14:46:35.488Z,0.63
2023-05-16T14:49:02.294Z,0.50
2023-05-16T14:51:28.846Z,0.57
2023-05-16T14:53:55.512Z,0.60
2023-05-16T14:56:22.730Z,0.80
2023-05-16T14:58:49.356Z,0.60
2023-05-16T15:01:16.684Z,0.50
2023-05-16T15:03:54.410Z,0.60
2023-05-16T15:06:23.491Z,0.50
2023-05-16T15:08:50.833Z,0.60
2023-05-16T15:11:17.450Z,0.73
2023-05-16T15:13:43.957Z,0.50
2023-05-16T15:16:10.726Z,0.80
2023-05-16T15:18:37.537Z,0.63
2023-05-16T15:21:04.354Z,0.77
2023-05-16T15:23:30.958Z,0.60
2023-05-16T15:25:57.656Z,0.60
2023-05-16T15:28:24.415Z,0.50
2023-05-16T15:30:51.560Z,0.90
2023-05-16T15:33:18.149Z,0.63
2023-05-16T15:35:44.830Z,0.50
2023-05-16T15:38:11.672Z,0.55
2023-05-16T15:40:38.240Z,0.70
2023-05-16T15:43:04.817Z,0.88
2023-05-16T15:45:32.578Z,0.60
2023-05-16T15:47:59.439Z,0.50
2023-05-16T15:50:26.486Z,0.70
2023-05-16T15:52:53.181Z,0.50
2023-05-16T15:55:19.907Z,0.50
2023-05-16T15:57:46.508Z,0.68
2023-05-16T16:00:13.722Z,0.77
2023-05-16T16:02:41.466Z,0.50
2023-05-16T16:05:08.510Z,0.60
2023-05-16T16:07:35.080Z,0.85
2023-05-16T16:10:02.025Z,1.10
2023-05-16T16:12:31.898Z,0.63
2023-05-16T16:14:58.524Z,0.90
2023-05-16T16:17:25.081Z,0.70
2023-05-16T16:19:51.839Z,0.65
2023-05-16T16:22:19.761Z,0.80
2023-05-16T16:24:47.578Z,0.88
2023-05-16T16:27:14.190Z,0.82
2023-05-16T16:29:40.783Z,0.77
2023-05-16T16:32:07.775Z,0.80
2023-05-16T16:34:34.350Z,0.77
2023-05-16T16:37:00.912Z,1.02
2023-05-16T16:39:28.934Z,0.90
2023-05-16T16:41:56.816Z,1.17
2023-05-16T16:44:23.376Z,0.98
2023-05-16T16:46:50.045Z,1.20
2023-05-16T16:49:16.603Z,1.15
2023-05-16T16:51:43.231Z,1.15
2023-05-16T16:54:19.128Z,1.66
2023-05-16T16:56:47.519Z,1.23
2023-05-16T16:59:16.260Z,1.20
2023-05-16T17:01:42.866Z,1.30
2023-05-16T17:04:09.431Z,1.30
2023-05-16T17:06:35.982Z,1.23
2023-05-16T17:09:05.019Z,1.27
2023-05-16T17:11:31.924Z,1.60
2023-05-16T17:13:59.727Z,1.67
2023-05-16T17:16:28.735Z,1.70
2023-05-16T17:18:56.240Z,1.45
2023-05-16T17:21:22.830Z,1.45
2023-05-16T17:23:52.228Z,1.48
2023-05-16T17:26:18.834Z,1.92
2023-05-16T17:28:48.921Z,1.30
2023-05-16T17:31:15.890Z,1.75
2023-05-16T17:33:42.481Z,1.85
2023-05-16T17:36:09.028Z,1.55
2023-05-16T17:38:35.592Z,1.73
2023-05-16T17:41:02.736Z,1.33
2023-05-16T17:43:30.928Z,1.20
2023-05-16T17:45:57.760Z,1.20
2023-05-16T17:48:24.553Z,1.30
2023-05-16T17:50:51.383Z,1.10
2023-05-16T17:53:18.017Z,1.10
2023-05-16T17:55:44.643Z,1.10
2023-05-16T17:58:11.181Z,1.40
2023-05-16T18:00:38.487Z,1.45
2023-05-16T18:03:06.362Z,1.00
2023-05-16T18:05:33.178Z,1.20
2023-05-16T18:07:59.792Z,0.90
2023-05-16T18:10:29.619Z,1.20
2023-05-16T18:15:29.924Z,0.75
2023-05-16T18:17:56.847Z,0.73
2023-05-16T18:20:23.479Z,1.08
2023-05-16T18:22:52.073Z,1.08
2023-05-16T18:25:18.705Z,1.10
2023-05-16T18:27:45.344Z,1.13
2023-05-16T18:30:13.391Z,1.08
2023-05-16T18:32:40.157Z,1.00
2023-05-16T18:35:07.093Z,1.38
2023-05-16T18:37:33.897Z,1.30
2023-05-16T18:40:00.515Z,1.02
2023-05-16T18:42:27.328Z,1.02
2023-05-16T18:44:53.909Z,1.10
2023-05-16T18:47:21.020Z,1.30
2023-05-16T18:49:47.877Z,1.10
2023-05-16T18:52:14.541Z,1.20
2023-05-16T18:54:41.310Z,1.30
2023-05-16T18:57:08.061Z,0.88
2023-05-16T18:59:36.099Z,1.17
2023-05-16T19:02:02.691Z,1.33
2023-05-16T19:04:29.439Z,1.45
2023-05-16T19:06:57.974Z,1.30
2023-05-16T19:09:25.239Z,0.90
2023-05-16T19:11:51.709Z,1.25
2023-05-16T19:14:18.336Z,1.30
2023-05-16T19:16:44.802Z,1.25
2023-05-16T19:19:11.490Z,1.40
2023-05-16T19:21:39.150Z,1.27
2023-05-16T19:24:06.145Z,1.27
2023-05-16T19:26:32.714Z,1.80
2023-05-16T19:29:00.339Z,1.27
2023-05-16T19:31:27.077Z,1.40
2023-05-16T19:33:53.586Z,1.45
2023-05-16T19:36:20.157Z,1.52
2023-05-16T19:38:46.807Z,1.50
2023-05-16T19:41:13.458Z,1.58
2023-05-16T19:43:39.963Z,1.30
2023-05-16T19:46:06.464Z,1.45
2023-05-16T19:48:33.600Z,1.40
2023-05-16T19:51:00.221Z,1.20
2023-05-16T19:53:26.797Z,1.88
2023-05-16T19:55:53.452Z,1.65
2023-05-16T19:58:20.136Z,1.42
2023-05-16T20:00:47.163Z,1.30
2023-05-16T20:03:14.129Z,1.20
2023-05-16T20:05:40.913Z,1.23
2023-05-16T20:08:07.724Z,1.92
2023-05-16T20:10:35.312Z,1.30
2023-05-16T20:13:01.858Z,1.30
2023-05-16T20:15:28.572Z,1.70
2023-05-16T20:17:55.408Z,1.58
2023-05-16T20:20:22.209Z,1.20
2023-05-16T20:22:48.761Z,1.23
2023-05-16T20:25:15.366Z,2.00
2023-05-16T20:27:41.963Z,1.58
2023-05-16T20:30:09.017Z,1.70
2023-05-16T20:32:36.120Z,1.60
2023-05-16T20:35:04.308Z,1.42
2023-05-16T20:37:30.885Z,1.55
2023-05-16T20:39:57.442Z,1.75
2023-05-16T20:42:23.976Z,1.60
2023-05-16T20:44:50.713Z,1.65
2023-05-16T20:47:17.721Z,1.90
2023-05-16T20:49:44.562Z,2.00
2023-05-16T20:52:11.125Z,1.75
2023-05-16T20:54:37.751Z,1.75
2023-05-16T20:57:04.680Z,1.83
2023-05-16T20:59:32.303Z,2.00
2023-05-16T21:01:58.935Z,1.80
2023-05-16T21:04:25.690Z,1.80
2023-05-16T21:06:52.473Z,1.92
2023-05-16T21:09:19.222Z,1.92
2023-05-16T21:11:45.762Z,2.40
2023-05-16T21:14:12.414Z,1.92
2023-05-16T21:16:38.977Z,1.65
2023-05-16T21:19:05.895Z,1.73
2023-05-16T21:21:32.724Z,1.58
2023-05-16T21:23:59.386Z,2.20
2023-05-16T21:26:26.036Z,2.15
2023-05-16T21:28:55.642Z,2.20
2023-05-16T21:31:22.726Z,1.70
2023-05-16T21:33:51.943Z,1.92
2023-05-16T21:36:19.716Z,1.77
2023-05-16T21:38:46.657Z,1.90
2023-05-16T21:41:13.376Z,1.73
2023-05-16T21:43:40.328Z,1.70
2023-05-16T21:46:07.046Z,1.92
2023-05-16T21:48:34.032Z,1.92
2023-05-16T21:51:00.730Z,1.60
2023-05-16T21:53:27.281Z,2.08
2023-05-16T21:55:53.881Z,1.88
2023-05-16T21:58:20.633Z,1.90
2023-05-16T22:00:47.461Z,2.10
2023-05-16T22:03:14.234Z,1.98
2023-05-16T22:05:40.809Z,2.88
2023-05-16T22:08:08.011Z,2.72
2023-05-16T22:10:34.635Z,2.10
2023-05-16T22:13:01.236Z,2.00
2023-05-16T22:15:27.901Z,2.17
2023-05-16T22:17:54.855Z,2.25
2023-05-16T22:20:21.593Z,1.88
2023-05-16T22:22:49.229Z,2.30
2023-05-16T22:25:15.782Z,3.38
2023-05-16T22:27:42.588Z,2.60
2023-05-16T22:30:09.474Z,3.05
2023-05-16T22:32:36.077Z,2.58
2023-05-16T22:35:04.936Z,2.28
2023-05-16T22:37:31.583Z,2.83
2023-05-16T22:39:58.216Z,2.55
2023-05-16T22:42:24.866Z,2.22
2023-05-16T22:44:51.349Z,2.03
2023-05-16T22:47:17.911Z,1.92
2023-05-16T22:49:44.490Z,2.55
2023-05-16T22:52:10.960Z,2.08
2023-05-16T22:54:37.562Z,2.35
2023-05-16T22:57:04.132Z,2.50
2023-05-16T22:59:31.069Z,2.88
2023-05-16T23:01:57.550Z,2.60
2023-05-16T23:04:24.228Z,2.50
2023-05-16T23:06:50.801Z,2.30
2023-05-16T23:09:17.358Z,2.72
2023-05-16T23:11:43.853Z,2.55
2023-05-16T23:14:10.645Z,2.40
2023-05-16T23:16:37.158Z,2.53
2023-05-16T23:19:04.224Z,2.50
2023-05-16T23:21:31.627Z,2.53
2023-05-16T23:23:58.131Z,2.60
2023-05-16T23:26:25.379Z,2.78
2023-05-16T23:28:52.210Z,2.88
2023-05-16T23:31:18.749Z,3.13
2023-05-16T23:33:45.392Z,2.90
2023-05-16T23:36:12.037Z,2.20
2023-05-16T23:38:38.638Z,2.60
2023-05-16T23:41:05.301Z,2.72
2023-05-16T23:43:31.768Z,2.42
2023-05-16T23:45:58.357Z,3.30
2023-05-16T23:48:25.189Z,3.05
2023-05-16T23:50:51.778Z,2.75
2023-05-16T23:53:18.372Z,3.03
2023-05-16T23:55:44.909Z,2.97
2023-05-16T23:58:11.730Z,2.63
